createdAt,value
2023-03-11T00:02:03.390Z,45.19
2023-03-11T00:06:03.488Z,45.87
2023-03-11T00:10:03.588Z,45.54
2023-03-11T00:14:03.710Z,45.54
2023-03-11T00:18:03.836Z,45.58
2023-03-11T00:22:03.908Z,45.61
2023-03-11T00:26:04.070Z,46.01
2023-03-11T00:30:04.154Z,46.60
2023-03-11T00:34:04.273Z,46.13
2023-03-11T00:38:04.415Z,46.31
2023-03-11T00:42:04.598Z,46.65
2023-03-11T00:46:04.664Z,46.33
2023-03-11T00:50:04.774Z,47.15
2023-03-11T00:54:04.924Z,47.79
2023-03-11T00:58:05.037Z,47.37
2023-03-11T01:02:05.185Z,47.41
2023-03-11T01:06:05.288Z,47.81
2023-03-11T01:10:05.405Z,47.30
2023-03-11T01:14:05.567Z,47.55
2023-03-11T01:18:05.709Z,47.33
2023-03-11T01:22:05.868Z,47.25
2023-03-11T01:26:05.946Z,47.57
2023-03-11T01:30:06.078Z,47.69
2023-03-11T01:34:06.252Z,47.24
2023-03-11T01:38:06.279Z,47.93
2023-03-11T01:42:06.400Z,47.76
2023-03-11T01:46:06.543Z,47.37
2023-03-11T01:50:06.606Z,47.23
2023-03-11T01:54:06.710Z,46.60
2023-03-11T01:58:06.891Z,46.32
2023-03-11T02:02:07.137Z,46.55
2023-03-11T02:06:07.145Z,45.88
2023-03-11T02:10:07.340Z,46.18
2023-03-11T02:14:07.361Z,45.42
2023-03-11T02:18:07.492Z,44.75
2023-03-11T02:22:07.602Z,44.49
2023-03-11T02:26:07.746Z,44.02
2023-03-11T02:30:07.820Z,43.96
2023-03-11T02:34:07.946Z,43.41
2023-03-11T02:38:08.087Z,43.34
2023-03-11T02:42:08.154Z,43.34
2023-03-11T02:46:08.301Z,43.28
2023-03-11T02:50:08.388Z,42.77
2023-03-11T02:54:08.575Z,43.91
2023-03-11T02:58:08.658Z,46.38
2023-03-11T03:02:08.828Z,47.45
2023-03-11T03:06:08.896Z,48.00
2023-03-11T03:10:09.023Z,48.36
2023-03-11T03:14:09.197Z,49.10
2023-03-11T03:18:09.344Z,49.48
2023-03-11T03:22:09.462Z,49.85
2023-03-11T03:26:09.555Z,50.28
2023-03-11T03:30:09.711Z,50.07
2023-03-11T03:34:09.846Z,49.92
2023-03-11T03:38:09.940Z,50.09
2023-03-11T03:42:10.037Z,49.86
2023-03-11T03:46:10.251Z,49.37
2023-03-11T03:50:10.371Z,49.16
2023-03-11T03:54:10.547Z,48.89
2023-03-11T03:58:10.660Z,48.32
2023-03-11T04:02:10.814Z,48.31
2023-03-11T04:06:10.884Z,48.46
2023-03-11T04:10:11.035Z,48.47
2023-03-11T04:14:11.114Z,48.12
2023-03-11T04:18:11.208Z,47.78
2023-03-11T04:22:11.349Z,47.86
2023-03-11T04:26:11.479Z,48.15
2023-03-11T04:30:11.593Z,48.12
2023-03-11T04:34:11.782Z,48.05
2023-03-11T04:38:11.982Z,48.24
2023-03-11T04:42:12.071Z,48.77
2023-03-11T04:46:12.274Z,48.55
2023-03-11T04:50:12.348Z,48.87
2023-03-11T04:54:12.443Z,48.86
2023-03-11T04:58:12.605Z,48.55
2023-03-11T05:02:13.061Z,48.26
2023-03-11T05:06:12.985Z,48.18
2023-03-11T05:10:13.004Z,48.09
2023-03-11T05:14:13.112Z,48.15
2023-03-11T05:18:13.238Z,48.02
2023-03-11T05:22:13.330Z,48.43
2023-03-11T05:26:13.505Z,48.72
2023-03-11T05:30:13.589Z,49.41
2023-03-11T05:34:13.698Z,49.79
2023-03-11T05:38:13.799Z,49.87
2023-03-11T05:42:13.942Z,49.92
2023-03-11T05:46:14.157Z,49.55
2023-03-11T05:50:14.153Z,49.60
2023-03-11T05:54:14.280Z,49.43
2023-03-11T05:58:14.435Z,49.76
2023-03-11T06:02:14.512Z,49.71
2023-03-11T06:06:14.652Z,49.50
2023-03-11T06:10:14.770Z,49.62
2023-03-11T06:14:14.922Z,49.00
2023-03-11T06:18:15.002Z,49.08
2023-03-11T06:22:15.204Z,49.15
2023-03-11T06:26:15.344Z,48.92
2023-03-11T06:30:15.467Z,49.04
2023-03-11T06:34:15.581Z,48.78
2023-03-11T06:38:15.737Z,48.69
2023-03-11T06:42:15.841Z,48.93
2023-03-11T06:46:16.029Z,48.87
2023-03-11T06:50:16.089Z,48.84
2023-03-11T06:54:16.219Z,48.41
2023-03-11T06:58:16.330Z,48.63
2023-03-11T07:02:16.462Z,48.73
2023-03-11T07:06:16.580Z,48.89
2023-03-11T07:10:16.813Z,48.60
2023-03-11T07:14:16.806Z,49.06
2023-03-11T07:18:16.945Z,48.55
2023-03-11T07:22:17.060Z,48.04
2023-03-11T07:26:17.134Z,48.11
2023-03-11T07:30:17.217Z,48.20
2023-03-11T07:34:17.644Z,47.82
2023-03-11T07:38:17.997Z,47.89
2023-03-11T07:42:17.624Z,48.18
2023-03-11T07:46:17.805Z,48.47
2023-03-11T07:50:17.932Z,48.80
2023-03-11T07:54:18.017Z,48.27
2023-03-11T07:58:18.252Z,47.61
2023-03-11T08:02:18.342Z,47.47
2023-03-11T08:06:18.482Z,47.47
2023-03-11T08:10:18.584Z,47.49
2023-03-11T08:14:18.674Z,47.67
2023-03-11T08:18:18.790Z,47.08
2023-03-11T08:22:18.926Z,46.79
2023-03-11T08:26:18.985Z,47.08
2023-03-11T08:30:19.180Z,46.89
2023-03-11T08:34:19.248Z,46.44
2023-03-11T08:38:19.382Z,45.90
2023-03-11T08:42:19.528Z,44.95
2023-03-11T08:46:19.673Z,44.01
2023-03-11T08:50:19.791Z,43.80
2023-03-11T08:54:19.872Z,43.81
2023-03-11T08:58:20.015Z,44.12
2023-03-11T09:02:20.158Z,43.59
2023-03-11T09:06:20.249Z,43.12
2023-03-11T09:10:20.353Z,42.73
2023-03-11T09:14:20.461Z,43.25
2023-03-11T09:18:20.549Z,42.38
2023-03-11T09:22:20.694Z,42.39
2023-03-11T09:26:20.783Z,42.60
2023-03-11T09:30:20.868Z,42.04
2023-03-11T09:34:21.002Z,41.58
2023-03-11T09:38:21.162Z,41.18
2023-03-11T09:42:21.298Z,40.30
2023-03-11T09:46:21.454Z,39.81
2023-03-11T09:50:21.520Z,39.34
2023-03-11T09:54:21.560Z,38.66
2023-03-11T09:58:21.693Z,38.11
2023-03-11T10:02:21.941Z,38.44
2023-03-11T10:06:21.950Z,37.71
2023-03-11T10:10:22.067Z,37.02
2023-03-11T10:14:22.124Z,36.69
2023-03-11T10:18:22.219Z,35.97
2023-03-11T10:22:22.359Z,33.95
2023-03-11T10:26:22.443Z,32.57
2023-03-11T10:30:22.621Z,32.43
2023-03-11T10:34:22.748Z,30.85
2023-03-11T10:38:22.808Z,30.49
2023-03-11T10:42:22.976Z,31.02
2023-03-11T10:46:23.072Z,30.43
2023-03-11T10:50:23.161Z,30.39
2023-03-11T10:54:23.289Z,29.24
2023-03-11T10:58:23.447Z,29.57
2023-03-11T11:02:23.568Z,28.83
2023-03-11T11:06:23.854Z,29.01
2023-03-11T11:10:23.804Z,27.62
2023-03-11T11:14:23.912Z,28.27
2023-03-11T11:18:23.996Z,28.86
2023-03-11T11:22:24.151Z,28.09
2023-03-11T11:26:24.243Z,28.36
2023-03-11T11:30:24.356Z,28.17
2023-03-11T11:34:24.399Z,27.78
2023-03-11T11:38:24.517Z,28.20
2023-03-11T11:42:24.659Z,29.09
2023-03-11T11:46:24.862Z,29.31
2023-03-11T11:50:24.934Z,28.92
2023-03-11T11:54:25.027Z,28.22
2023-03-11T11:58:25.093Z,28.71
2023-03-11T12:02:25.181Z,28.79
2023-03-11T12:06:25.254Z,27.14
2023-03-11T12:10:25.353Z,27.40
2023-03-11T12:14:25.479Z,27.65
2023-03-11T12:18:25.642Z,27.32
2023-03-11T12:22:25.760Z,26.97
2023-03-11T12:26:25.848Z,27.38
2023-03-11T12:30:25.984Z,26.59
2023-03-11T12:34:26.060Z,25.97
2023-03-11T12:38:26.191Z,25.34
2023-03-11T12:42:26.338Z,25.84
2023-03-11T12:46:26.486Z,25.18
2023-03-11T12:50:26.552Z,25.07
2023-03-11T12:54:26.715Z,24.99
2023-03-11T12:58:26.885Z,24.80
2023-03-11T13:02:27.014Z,25.32
2023-03-11T13:06:27.101Z,25.72
2023-03-11T13:10:27.261Z,25.62
2023-03-11T13:14:27.428Z,25.10
2023-03-11T13:18:27.530Z,24.80
2023-03-11T13:22:27.719Z,24.88
2023-03-11T13:26:27.803Z,24.84
2023-03-11T13:30:28.006Z,24.15
2023-03-11T13:34:28.137Z,24.16
2023-03-11T13:38:28.187Z,25.14
2023-03-11T13:42:28.356Z,25.40
2023-03-11T13:46:28.408Z,26.36
2023-03-11T13:50:28.487Z,27.47
2023-03-11T13:54:28.597Z,27.36
2023-03-11T13:58:28.728Z,26.74
2023-03-11T14:02:28.826Z,26.57
2023-03-11T14:06:28.984Z,26.81
2023-03-11T14:10:29.066Z,27.91
2023-03-11T14:14:29.081Z,27.65
2023-03-11T14:18:29.230Z,27.10
2023-03-11T14:22:29.337Z,26.55
2023-03-11T14:26:29.458Z,27.00
2023-03-11T14:30:29.545Z,26.92
2023-03-11T14:34:29.685Z,27.50
2023-03-11T14:38:29.859Z,27.16
2023-03-11T14:42:29.941Z,27.41
2023-03-11T14:46:30.070Z,27.46
2023-03-11T14:50:30.193Z,27.44
2023-03-11T14:54:30.288Z,27.45
2023-03-11T14:58:30.435Z,27.13
2023-03-11T15:02:30.546Z,28.11
2023-03-11T15:06:30.670Z,29.12
2023-03-11T15:10:30.760Z,29.53
2023-03-11T15:14:30.852Z,29.59
2023-03-11T15:18:30.987Z,29.56
2023-03-11T15:22:31.124Z,29.88
2023-03-11T15:26:31.234Z,30.78
2023-03-11T15:30:31.452Z,31.56
2023-03-11T15:34:31.514Z,31.76
2023-03-11T15:38:31.598Z,33.01
2023-03-11T15:42:31.689Z,34.18
2023-03-11T15:46:31.925Z,33.92
2023-03-11T15:50:46.743Z,33.97
2023-03-11T15:54:32.950Z,34.94
2023-03-11T15:58:32.088Z,36.11
2023-03-11T16:02:31.881Z,36.46
2023-03-11T16:06:31.900Z,37.79
2023-03-11T16:10:32.046Z,38.62
2023-03-11T16:14:32.146Z,38.29
2023-03-11T16:18:32.268Z,38.97
2023-03-11T16:22:32.413Z,39.89
2023-03-11T16:26:32.712Z,40.26
2023-03-11T16:30:32.727Z,40.93
2023-03-11T16:34:32.754Z,41.48
2023-03-11T16:38:32.870Z,42.12
2023-03-11T16:42:33.045Z,42.26
2023-03-11T16:46:33.264Z,42.89
2023-03-11T16:50:34.246Z,43.20
2023-03-11T16:54:33.484Z,43.71
2023-03-11T16:58:33.584Z,43.75
2023-03-11T17:02:33.792Z,43.96
2023-03-11T17:06:33.901Z,43.93
2023-03-11T17:10:34.041Z,43.93
2023-03-11T17:14:34.199Z,44.36
2023-03-11T17:18:34.350Z,44.59
2023-03-11T17:22:34.480Z,43.97
2023-03-11T17:26:34.582Z,43.86
2023-03-11T17:30:38.845Z,44.44
2023-03-11T17:34:34.677Z,44.44
2023-03-11T17:38:34.643Z,44.46
2023-03-11T17:42:34.594Z,44.81
2023-03-11T17:46:34.571Z,44.92
2023-03-11T17:50:34.541Z,44.47
2023-03-11T17:54:34.507Z,45.06
2023-03-11T17:58:34.443Z,45.00
2023-03-11T18:02:34.449Z,44.92
2023-03-11T18:06:34.432Z,45.08
2023-03-11T18:10:37.230Z,44.35
2023-03-11T18:14:34.458Z,44.27
2023-03-11T18:18:34.444Z,44.37
2023-03-11T18:22:35.476Z,44.01
2023-03-11T18:26:34.347Z,44.41
2023-03-11T18:30:34.295Z,44.47
2023-03-11T18:34:34.287Z,44.35
2023-03-11T18:38:34.238Z,44.11
2023-03-11T18:42:34.244Z,43.82
2023-03-11T18:46:34.210Z,43.59
2023-03-11T18:50:34.196Z,43.69
2023-03-11T18:54:34.103Z,47.04
2023-03-11T18:58:34.164Z,52.70
2023-03-11T19:02:34.305Z,57.10
2023-03-11T19:06:34.440Z,59.48
2023-03-11T19:10:34.629Z,61.37
2023-03-11T19:14:34.719Z,61.98
2023-03-11T19:18:34.816Z,63.60
2023-03-11T19:22:35.005Z,64.69
2023-03-11T19:26:44.437Z,65.34
2023-03-11T19:30:36.198Z,66.89
2023-03-11T19:34:35.066Z,67.86
2023-03-11T19:38:35.035Z,67.51
2023-03-11T19:42:35.238Z,68.91
2023-03-11T19:46:35.417Z,68.74
2023-03-11T19:50:35.392Z,68.72
2023-03-11T19:54:35.491Z,69.39
2023-03-11T19:58:35.697Z,69.65
2023-03-11T20:02:35.857Z,69.54
2023-03-11T20:06:36.028Z,69.03
2023-03-11T20:10:36.120Z,68.39
2023-03-11T20:14:36.169Z,69.33
2023-03-11T20:18:36.257Z,69.59
2023-03-11T20:22:36.438Z,68.83
2023-03-11T20:26:36.413Z,68.96
2023-03-11T20:30:36.552Z,69.00
2023-03-11T20:34:36.751Z,67.52
2023-03-11T20:38:36.898Z,68.67
2023-03-11T20:42:36.926Z,67.69
2023-03-11T20:46:37.095Z,67.68
2023-03-11T20:50:37.177Z,68.26
2023-03-11T20:54:37.371Z,69.09
2023-03-11T20:58:37.373Z,68.29
2023-03-11T21:02:37.740Z,67.74
2023-03-11T21:06:37.683Z,67.48
2023-03-11T21:10:37.817Z,68.94
2023-03-11T21:14:38.080Z,67.46
2023-03-11T21:18:38.068Z,67.38
2023-03-11T21:22:38.151Z,68.05
2023-03-11T21:26:38.216Z,67.88
2023-03-11T21:30:38.238Z,67.29
2023-03-11T21:34:38.347Z,66.53
2023-03-11T21:38:38.586Z,67.44
2023-03-11T21:42:38.720Z,67.65
2023-03-11T21:46:38.879Z,66.88
2023-03-11T21:50:38.868Z,67.54
2023-03-11T21:54:38.952Z,68.81
2023-03-11T21:58:39.164Z,68.27
2023-03-11T22:02:39.245Z,67.29
2023-03-11T22:06:39.473Z,67.87
2023-03-11T22:10:39.455Z,67.77
2023-03-11T22:14:39.678Z,67.37
2023-03-11T22:18:39.878Z,67.60
2023-03-11T22:22:39.957Z,67.62
2023-03-11T22:26:39.961Z,67.35
2023-03-11T22:30:40.132Z,67.49
2023-03-11T22:34:40.207Z,68.46
2023-03-11T22:38:42.108Z,68.80
2023-03-11T22:42:40.527Z,68.57
2023-03-11T22:46:40.644Z,68.08
2023-03-11T22:50:40.756Z,68.48
2023-03-11T22:54:40.956Z,68.19
2023-03-11T22:58:40.967Z,68.70
2023-03-11T23:02:41.282Z,68.41
2023-03-11T23:06:41.384Z,68.42
2023-03-11T23:10:41.539Z,68.35
2023-03-11T23:14:45.275Z,68.38
2023-03-11T23:18:41.557Z,68.51
2023-03-11T23:22:41.529Z,68.08
2023-03-11T23:26:41.520Z,68.02
2023-03-11T23:30:41.559Z,67.53
2023-03-11T23:34:41.430Z,68.54
2023-03-11T23:38:41.411Z,68.06
2023-03-11T23:42:41.377Z,67.91
2023-03-11T23:46:41.318Z,67.34
2023-03-11T23:50:41.290Z,66.82
2023-03-11T23:54:41.278Z,66.79
2023-03-11T23:58:41.218Z,66.82
